Time;durP1;ratioP1;P1;durP2;ratioP2;P2;SDS_P1;SDS_P2;PMS_P1;PMS_P2;Temp;Humidity;BMP_temperature;BMP_pressure;BME280_temperature;BME280_humidity;BME280_pressure;Samples;Min_cycle;Max_cycle;Signal;HPM_P1;HPM_P2
2023/10/27 00:01:45;;;;;;;0.30;0.30;;;;;;;8.53;100.00;97074.88;4977152;28;20042;-60
2023/10/27 00:04:12;;;;;;;0.30;0.30;;;;;;;8.54;100.00;97079.16;4978281;28;20509;-60
2023/10/27 00:06:39;;;;;;;0.30;0.30;;;;;;;8.48;100.00;97081.03;4977978;28;20051;-61
2023/10/27 00:09:07;;;;;;;0.30;0.30;;;;;;;8.57;100.00;97081.25;4984858;28;20039;-61
2023/10/27 00:11:36;;;;;;;0.27;0.27;;;;;;;8.55;100.00;97083.41;4983555;28;20038;-60
2023/10/27 00:14:03;;;;;;;0.28;0.28;;;;;;;8.57;100.00;97079.38;4983474;28;20412;-60
2023/10/27 00:16:30;;;;;;;0.25;0.25;;;;;;;8.56;100.00;97080.47;4977888;28;20476;-60
2023/10/27 00:18:57;;;;;;;0.30;0.30;;;;;;;8.59;100.00;97079.09;4974841;28;20031;-60
2023/10/27 00:21:24;;;;;;;0.25;0.25;;;;;;;8.55;100.00;97080.72;4980607;28;20039;-61
2023/10/27 00:23:51;;;;;;;0.20;0.20;;;;;;;8.57;100.00;97082.03;4979036;28;20074;-60
2023/10/27 00:26:20;;;;;;;0.30;0.30;;;;;;;8.59;100.00;97079.09;4981458;28;20053;-60
2023/10/27 00:28:50;;;;;;;0.30;0.30;;;;;;;8.56;100.00;97087.66;4978314;28;20042;-60
2023/10/27 00:31:17;;;;;;;0.30;0.30;;;;;;;8.60;100.00;97086.00;4983013;28;20035;-60
2023/10/27 00:33:44;;;;;;;0.30;0.30;;;;;;;8.65;100.00;97083.28;4975529;28;20153;-60
2023/10/27 00:36:11;;;;;;;0.20;0.20;;;;;;;8.69;100.00;97088.88;4988831;28;20489;-60
2023/10/27 00:38:38;;;;;;;0.20;0.20;;;;;;;8.71;100.00;97087.53;4978461;28;20047;-60
2023/10/27 00:41:05;;;;;;;0.30;0.30;;;;;;;8.72;100.00;97089.09;4975053;28;20129;-60
2023/10/27 00:43:34;;;;;;;0.20;0.20;;;;;;;8.74;100.00;97086.97;4985597;28;20509;-60
2023/10/27 00:46:01;;;;;;;0.20;0.20;;;;;;;8.68;100.00;97082.72;4981148;28;20133;-60
2023/10/27 00:48:28;;;;;;;0.22;0.22;;;;;;;8.75;100.00;97082.41;4976317;28;20039;-60
2023/10/27 00:50:55;;;;;;;0.38;0.38;;;;;;;8.77;100.00;97082.91;4974963;28;20129;-60
2023/10/27 00:53:22;;;;;;;0.28;0.28;;;;;;;8.80;100.00;97079.69;4973674;28;20074;-60
2023/10/27 00:55:49;;;;;;;0.10;0.10;;;;;;;8.75;100.00;97077.84;4973676;28;20138;-61
2023/10/27 00:58:16;;;;;;;0.20;0.20;;;;;;;8.75;100.00;97083.19;4984019;28;20122;-61
2023/10/27 01:00:45;;;;;;;0.30;0.30;;;;;;;8.82;100.00;97078.31;4985860;28;20444;-60
2023/10/27 01:03:12;;;;;;;0.30;0.30;;;;;;;8.77;100.00;97070.34;4981056;28;20207;-60
2023/10/27 01:05:39;;;;;;;0.30;0.30;;;;;;;8.78;100.00;97071.94;4982986;28;20400;-61
2023/10/27 01:08:06;;;;;;;0.20;0.20;;;;;;;8.77;100.00;97064.22;4982127;28;20122;-60
2023/10/27 01:10:33;;;;;;;0.40;0.40;;;;;;;8.82;100.00;97070.31;4987266;28;20142;-60
2023/10/27 01:13:00;;;;;;;0.30;0.30;;;;;;;8.80;100.00;97069.00;4976769;28;20054;-60
2023/10/27 01:15:29;;;;;;;0.30;0.30;;;;;;;8.71;100.00;97060.00;4979285;28;20038;-60
2023/10/27 01:17:58;;;;;;;0.30;0.30;;;;;;;8.76;100.00;97052.75;4978326;28;20054;-60
2023/10/27 01:20:25;;;;;;;0.30;0.30;;;;;;;8.73;100.00;97061.31;4995977;28;20402;-61
2023/10/27 01:22:53;;;;;;;0.20;0.20;;;;;;;8.71;100.00;97050.13;4971802;28;20055;-60
2023/10/27 01:25:20;;;;;;;0.30;0.30;;;;;;;8.73;100.00;97060.50;4986459;28;20069;-60
2023/10/27 01:27:48;;;;;;;0.30;0.30;;;;;;;8.72;100.00;97062.41;5006651;28;20757;-61
2023/10/27 01:30:15;;;;;;;0.30;0.30;;;;;;;8.71;100.00;97063.50;4974250;28;20046;-60
2023/10/27 01:32:43;;;;;;;0.20;0.20;;;;;;;8.69;100.00;97057.63;4976947;28;20047;-60
2023/10/27 01:35:10;;;;;;;0.20;0.20;;;;;;;8.64;100.00;97050.47;4974923;28;20038;-59
2023/10/27 01:37:37;;;;;;;0.30;0.30;;;;;;;8.73;100.00;97049.84;4976635;28;20054;-59
2023/10/27 01:40:07;;;;;;;0.20;0.20;;;;;;;8.77;100.00;97046.31;4988263;28;20046;-59
2023/10/27 01:42:36;;;;;;;0.30;0.30;;;;;;;8.74;100.00;97033.53;4988781;28;20046;-60
2023/10/27 01:45:04;;;;;;;0.30;0.30;;;;;;;8.84;100.00;97038.75;4995060;28;20038;-60
2023/10/27 01:47:32;;;;;;;0.30;0.30;;;;;;;8.83;100.00;97041.72;4984766;28;20125;-59
2023/10/27 01:49:59;;;;;;;0.30;0.30;;;;;;;8.81;100.00;97042.00;5008939;28;20045;-60
2023/10/27 01:52:26;;;;;;;0.30;0.30;;;;;;;8.87;100.00;97041.94;4988620;28;20511;-59
2023/10/27 01:54:54;;;;;;;0.28;0.28;;;;;;;8.79;100.00;97033.47;4986227;28;20050;-59
2023/10/27 01:57:23;;;;;;;0.28;0.28;;;;;;;8.88;100.00;97035.53;4995182;28;20049;-59
2023/10/27 01:59:50;;;;;;;0.30;0.30;;;;;;;8.87;100.00;97020.59;5002146;28;20047;-59
2023/10/27 02:02:17;;;;;;;0.30;0.30;;;;;;;8.90;100.00;97020.78;4970139;28;20126;-59
2023/10/27 02:04:44;;;;;;;0.30;0.30;;;;;;;8.97;100.00;97015.91;4996598;28;20105;-59
2023/10/27 02:07:12;;;;;;;0.30;0.30;;;;;;;8.95;100.00;97018.06;4979045;28;20524;-59
2023/10/27 02:09:39;;;;;;;0.30;0.30;;;;;;;8.89;100.00;97005.84;4984677;28;20655;-59
2023/10/27 02:12:09;;;;;;;0.30;0.30;;;;;;;8.92;100.00;97007.16;4980786;28;20046;-59
2023/10/27 02:14:39;;;;;;;0.20;0.20;;;;;;;8.94;100.00;97007.69;4997114;28;20442;-59
2023/10/27 02:17:05;;;;;;;0.20;0.20;;;;;;;8.89;100.00;97005.06;4983771;28;20054;-59
2023/10/27 02:19:32;;;;;;;0.20;0.20;;;;;;;8.92;100.00;96999.94;4977787;28;20129;-59
2023/10/27 02:22:00;;;;;;;0.25;0.25;;;;;;;8.92;100.00;96993.81;4986874;28;20048;-59
2023/10/27 02:24:27;;;;;;;0.20;0.20;;;;;;;8.92;100.00;96997.25;4986488;28;20340;-59
2023/10/27 02:26:54;;;;;;;0.32;0.32;;;;;;;8.96;100.00;96992.13;4993289;28;21864;-59
2023/10/27 02:29:22;;;;;;;0.20;0.20;;;;;;;8.93;100.00;96993.50;4976213;28;20038;-59
2023/10/27 02:31:51;;;;;;;0.28;0.28;;;;;;;8.92;100.00;96988.47;4979759;28;20133;-59
2023/10/27 02:34:18;;;;;;;0.20;0.20;;;;;;;8.88;100.00;96993.56;5016449;28;20039;-59
2023/10/27 02:36:45;;;;;;;0.20;0.20;;;;;;;8.80;100.00;96986.19;5016785;28;20049;-59
2023/10/27 02:39:11;;;;;;;0.22;0.22;;;;;;;8.73;100.00;96989.19;4982183;28;20035;-60
2023/10/27 02:41:38;;;;;;;0.20;0.20;;;;;;;8.75;100.00;96981.69;4983782;28;20125;-59
2023/10/27 02:44:06;;;;;;;0.20;0.20;;;;;;;8.74;100.00;96985.47;4983763;28;20042;-59
2023/10/27 02:46:33;;;;;;;0.30;0.30;;;;;;;8.77;100.00;96981.44;4997383;28;20039;-59
2023/10/27 02:49:03;;;;;;;0.30;0.30;;;;;;;8.74;100.00;96980.13;4984309;28;20046;-60
2023/10/27 02:51:30;;;;;;;0.30;0.30;;;;;;;8.73;100.00;96978.50;4997915;28;20039;-59
2023/10/27 02:53:57;;;;;;;0.30;0.30;;;;;;;8.68;100.00;96970.56;4989124;28;20048;-59
2023/10/27 02:56:24;;;;;;;0.25;0.25;;;;;;;8.58;100.00;96965.34;4980588;28;20038;-59
2023/10/27 02:58:51;;;;;;;0.25;0.25;;;;;;;8.57;100.00;96969.09;4980381;28;20050;-59
2023/10/27 03:01:18;;;;;;;0.30;0.30;;;;;;;8.58;100.00;96966.13;4973152;28;20110;-60
2023/10/27 03:03:45;;;;;;;0.20;0.20;;;;;;;8.53;100.00;96963.53;4987860;28;20038;-60
2023/10/27 03:06:14;;;;;;;0.30;0.30;;;;;;;8.53;100.00;96962.72;4972234;28;20065;-59
2023/10/27 03:08:42;;;;;;;0.20;0.20;;;;;;;8.49;100.00;96959.84;4980424;28;20045;-59
2023/10/27 03:11:09;;;;;;;0.30;0.30;;;;;;;8.47;100.00;96958.53;4983759;28;20038;-59
2023/10/27 03:13:36;;;;;;;0.30;0.30;;;;;;;8.43;100.00;96947.63;4983620;28;20046;-59
2023/10/27 03:16:04;;;;;;;0.30;0.30;;;;;;;8.40;100.00;96957.00;4978686;28;20050;-59
2023/10/27 03:18:31;;;;;;;0.40;0.40;;;;;;;8.33;100.00;96951.16;4974221;28;20043;-60
2023/10/27 03:20:58;;;;;;;0.25;0.25;;;;;;;8.34;100.00;96939.41;4983454;28;20060;-59
2023/10/27 03:23:27;;;;;;;0.40;0.40;;;;;;;8.26;100.00;96948.03;4971401;28;20450;-59
2023/10/27 03:25:55;;;;;;;0.30;0.30;;;;;;;8.32;100.00;96952.25;4983791;28;20654;-59
2023/10/27 03:28:23;;;;;;;0.30;0.30;;;;;;;8.25;100.00;96945.66;4980533;28;20054;-59
2023/10/27 03:30:50;;;;;;;0.20;0.20;;;;;;;8.25;100.00;96945.66;4981914;28;20055;-59
2023/10/27 03:33:18;;;;;;;0.22;0.22;;;;;;;8.30;100.00;96950.94;4995321;28;20047;-60
2023/10/27 03:35:47;;;;;;;0.30;0.30;;;;;;;8.26;100.00;96953.38;4979067;28;20309;-60
2023/10/27 03:38:14;;;;;;;0.28;0.28;;;;;;;8.16;100.00;96942.78;4985807;28;20060;-60
2023/10/27 03:40:43;;;;;;;0.30;0.30;;;;;;;8.19;100.00;96942.25;4973665;28;20042;-60
2023/10/27 03:43:10;;;;;;;0.30;0.30;;;;;;;8.21;100.00;96945.41;4976248;28;20042;-60
2023/10/27 03:45:37;;;;;;;0.30;0.30;;;;;;;8.21;100.00;96940.91;4974266;28;20093;-60
2023/10/27 03:48:05;;;;;;;0.30;0.30;;;;;;;8.28;100.00;96943.22;4975209;28;20066;-60
2023/10/27 03:50:32;;;;;;;0.30;0.30;;;;;;;8.29;100.00;96936.03;4976067;28;20074;-60
2023/10/27 03:52:59;;;;;;;0.30;0.30;;;;;;;8.23;100.00;96931.78;5010160;28;20452;-60
2023/10/27 03:55:26;;;;;;;0.30;0.30;;;;;;;8.20;100.00;96933.94;4996997;28;20102;-59
2023/10/27 03:57:55;;;;;;;0.30;0.30;;;;;;;8.21;100.00;96937.41;4974186;28;20046;-59
2023/10/27 04:00:24;;;;;;;0.30;0.30;;;;;;;8.24;100.00;96934.19;4974120;28;20050;-60
2023/10/27 04:02:51;;;;;;;0.20;0.20;;;;;;;8.32;100.00;96930.91;4981883;28;20487;-60
2023/10/27 04:05:18;;;;;;;0.30;0.30;;;;;;;8.35;100.00;96933.00;4977286;28;20137;-60
2023/10/27 04:07:45;;;;;;;0.30;0.30;;;;;;;8.33;100.00;96929.03;4979287;28;20074;-60
2023/10/27 04:10:15;;;;;;;0.30;0.30;;;;;;;8.33;100.00;96935.16;4977266;28;20580;-60
2023/10/27 04:12:42;;;;;;;0.30;0.30;;;;;;;8.27;100.00;96924.81;4975848;28;20562;-59
2023/10/27 04:15:11;;;;;;;0.30;0.30;;;;;;;8.30;100.00;96927.72;4975921;28;20105;-59
2023/10/27 04:17:38;;;;;;;0.20;0.20;;;;;;;8.31;100.00;96923.97;4978840;28;20070;-60
2023/10/27 04:20:07;;;;;;;0.35;0.35;;;;;;;8.38;100.00;96924.41;4971787;28;20608;-60
2023/10/27 04:22:34;;;;;;;0.20;0.20;;;;;;;8.40;100.00;96929.50;4975531;28;20137;-60
2023/10/27 04:25:00;;;;;;;0.30;0.30;;;;;;;8.43;100.00;96931.59;4980538;28;20043;-60
2023/10/27 04:27:28;;;;;;;0.30;0.30;;;;;;;8.40;100.00;96922.28;4977038;28;20585;-60
2023/10/27 04:29:56;;;;;;;0.30;0.30;;;;;;;8.41;100.00;96923.91;4978545;28;20046;-60
2023/10/27 04:32:26;;;;;;;0.30;0.30;;;;;;;8.38;100.00;96929.75;4980878;28;20042;-60
2023/10/27 04:34:53;;;;;;;0.30;0.30;;;;;;;8.46;100.00;96924.91;4979383;28;20208;-60
2023/10/27 04:37:20;;;;;;;0.20;0.20;;;;;;;8.39;100.00;96936.72;4980018;28;20035;-60
2023/10/27 04:39:47;;;;;;;0.20;0.20;;;;;;;8.34;100.00;96928.75;4980140;28;20041;-60
2023/10/27 04:42:14;;;;;;;0.20;0.20;;;;;;;8.42;100.00;96925.47;4980213;28;20119;-60
2023/10/27 04:44:41;;;;;;;0.30;0.30;;;;;;;8.33;100.00;96932.47;4978177;28;20039;-60
2023/10/27 04:47:08;;;;;;;0.20;0.20;;;;;;;8.36;100.00;96929.25;4977503;28;20113;-60
2023/10/27 04:49:36;;;;;;;0.28;0.28;;;;;;;8.37;100.00;96925.50;4978319;28;20043;-61
2023/10/27 04:52:03;;;;;;;0.30;0.30;;;;;;;8.37;100.00;96930.84;4979743;28;20039;-60
2023/10/27 04:54:30;;;;;;;0.30;0.30;;;;;;;8.32;100.00;96925.56;4976118;28;20133;-60
2023/10/27 04:56:57;;;;;;;0.30;0.30;;;;;;;8.37;100.00;96936.19;4973672;28;20551;-60
2023/10/27 04:59:24;;;;;;;0.30;0.30;;;;;;;8.35;100.00;96927.66;4982612;28;20058;-61
2023/10/27 05:01:52;;;;;;;0.22;0.22;;;;;;;8.35;100.00;96930.31;4983647;28;20133;-60
2023/10/27 05:04:19;;;;;;;0.40;0.40;;;;;;;8.40;100.00;96924.97;4983707;28;20077;-60
2023/10/27 05:06:47;;;;;;;0.20;0.20;;;;;;;8.37;100.00;96922.84;4976273;28;20142;-60
2023/10/27 05:09:15;;;;;;;0.30;0.30;;;;;;;8.38;100.00;96921.75;4974828;28;20096;-60
2023/10/27 05:11:42;;;;;;;0.20;0.20;;;;;;;8.40;100.00;96926.84;5004702;28;20066;-60
2023/10/27 05:14:09;;;;;;;0.30;0.30;;;;;;;8.42;100.00;96925.47;4982110;28;20457;-60
2023/10/27 05:16:36;;;;;;;0.30;0.30;;;;;;;8.41;100.00;96926.56;4979033;28;20047;-60
2023/10/27 05:19:04;;;;;;;0.20;0.20;;;;;;;8.47;100.00;96921.97;4985109;28;20511;-60
2023/10/27 05:21:31;;;;;;;0.30;0.30;;;;;;;8.47;100.00;96921.16;4981301;28;20054;-60
2023/10/27 05:24:01;;;;;;;0.30;0.30;;;;;;;8.50;100.00;96917.91;4986372;28;20035;-61
2023/10/27 05:26:28;;;;;;;0.30;0.30;;;;;;;8.47;100.00;96921.16;4982324;28;20050;-61
2023/10/27 05:28:55;;;;;;;0.30;0.30;;;;;;;8.43;100.00;96926.25;4982619;28;20397;-60
2023/10/27 05:31:22;;;;;;;0.30;0.30;;;;;;;8.46;100.00;96924.91;4984316;28;20127;-61
2023/10/27 05:33:50;;;;;;;0.30;0.30;;;;;;;8.42;100.00;96919.34;4983362;28;20043;-60
2023/10/27 05:36:17;;;;;;;0.40;0.40;;;;;;;8.35;100.00;96922.31;4983727;28;20400;-60
2023/10/27 05:38:44;;;;;;;0.20;0.20;;;;;;;8.38;100.00;96921.75;4986286;28;20489;-60
2023/10/27 05:41:14;;;;;;;0.30;0.30;;;;;;;8.41;100.00;96923.91;4996568;28;20077;-60
2023/10/27 05:43:41;;;;;;;;;;;;;;;8.39;100.00;96920.72;5015765;28;20154;-59
2023/10/27 05:46:08;;;;;;;0.30;0.30;;;;;;;8.37;100.00;96925.50;4982207;28;19925;-59
2023/10/27 05:48:35;;;;;;;0.30;0.30;;;;;;;8.38;100.00;96919.06;4981988;28;20039;-59
2023/10/27 05:51:03;;;;;;;0.20;0.20;;;;;;;8.38;100.00;96923.63;4983589;28;20043;-59
2023/10/27 05:53:30;;;;;;;0.30;0.30;;;;;;;8.38;100.00;96918.28;4977995;28;20035;-59
2023/10/27 05:55:57;;;;;;;0.20;0.20;;;;;;;8.37;100.00;96922.03;4999931;28;20096;-59
2023/10/27 05:58:30;;;;;;;0.30;0.30;;;;;;;8.33;100.00;96916.47;4985056;28;20112;-59
2023/10/27 06:00:57;;;;;;;0.25;0.25;;;;;;;8.35;100.00;96924.19;4989441;28;20053;-60
2023/10/27 06:03:24;;;;;;;0.30;0.30;;;;;;;8.31;100.00;96923.16;4992805;28;20046;-60
2023/10/27 06:05:52;;;;;;;0.30;0.30;;;;;;;8.34;100.00;96930.63;4988070;28;20086;-59
2023/10/27 06:08:20;;;;;;;0.35;0.35;;;;;;;8.33;100.00;96932.47;4988002;28;20058;-59
2023/10/27 06:10:47;;;;;;;0.90;0.77;;;;;;;8.25;100.00;96930.44;4980733;28;20073;-59
2023/10/27 06:13:14;;;;;;;0.75;0.75;;;;;;;8.31;100.00;96934.66;4980335;28;20073;-59
2023/10/27 06:15:42;;;;;;;2.63;2.00;;;;;;;8.13;100.00;96946.03;4983223;28;20038;-59
2023/10/27 06:18:09;;;;;;;1.35;1.13;;;;;;;8.16;100.00;96942.78;4980017;28;20038;-59
2023/10/27 06:20:37;;;;;;;0.60;0.60;;;;;;;8.15;100.00;96942.00;4974295;28;20130;-59
2023/10/27 06:23:04;;;;;;;0.20;0.20;;;;;;;8.05;100.00;96941.31;4981789;28;20046;-59
2023/10/27 06:25:31;;;;;;;0.30;0.30;;;;;;;8.21;100.00;96950.75;4981561;28;20046;-60
2023/10/27 06:27:58;;;;;;;0.30;0.30;;;;;;;8.32;100.00;96952.25;4984659;28;20038;-60
2023/10/27 06:30:25;;;;;;;0.30;0.30;;;;;;;8.33;100.00;96953.81;4981351;28;20086;-60
2023/10/27 06:32:53;;;;;;;0.30;0.30;;;;;;;8.36;100.00;96957.81;4979716;28;20038;-59
2023/10/27 06:35:20;;;;;;;0.30;0.30;;;;;;;8.36;100.00;96963.97;4977508;28;20101;-59
2023/10/27 06:37:47;;;;;;;0.40;0.40;;;;;;;8.35;100.00;96962.34;4986583;28;20042;-59
2023/10/27 06:40:16;;;;;;;0.30;0.30;;;;;;;8.34;100.00;96968.78;4984874;28;20038;-60
2023/10/27 06:42:43;;;;;;;0.22;0.22;;;;;;;8.32;100.00;96975.47;4977237;28;20054;-60
2023/10/27 06:45:10;;;;;;;0.20;0.20;;;;;;;8.34;100.00;96979.47;4974913;28;20056;-59
2023/10/27 06:47:39;;;;;;;0.40;0.40;;;;;;;8.32;100.00;96986.94;4988392;28;20045;-59
2023/10/27 06:50:08;;;;;;;0.40;0.40;;;;;;;8.19;100.00;96985.75;4978095;28;20046;-59
2023/10/27 06:52:35;;;;;;;0.30;0.30;;;;;;;7.96;100.00;96976.63;4981839;28;20076;-59
2023/10/27 06:55:02;;;;;;;0.28;0.28;;;;;;;8.04;100.00;96979.72;5012469;28;20052;-59
2023/10/27 06:57:30;;;;;;;0.30;0.30;;;;;;;8.17;100.00;96976.41;4977184;28;20042;-59
2023/10/27 06:59:57;;;;;;;0.30;0.30;;;;;;;8.27;100.00;96987.00;4981610;28;20049;-59
2023/10/27 07:02:24;;;;;;;0.32;0.32;;;;;;;8.38;100.00;96996.47;4977811;28;20066;-59
2023/10/27 07:04:51;;;;;;;0.30;0.30;;;;;;;8.33;100.00;97004.53;4977379;28;20121;-59
2023/10/27 07:07:20;;;;;;;0.82;0.82;;;;;;;8.32;100.00;97008.28;4970199;28;20049;-59
2023/10/27 07:09:47;;;;;;;0.40;0.40;;;;;;;8.19;100.00;97004.41;4981667;28;20133;-59
2023/10/27 07:12:14;;;;;;;0.30;0.30;;;;;;;8.11;100.00;97009.56;4980397;28;20494;-60
2023/10/27 07:14:41;;;;;;;0.22;0.22;;;;;;;8.05;100.00;97005.34;4984381;28;20046;-60
2023/10/27 07:17:08;;;;;;;0.25;0.25;;;;;;;8.18;100.00;97010.81;4982294;28;20046;-60
2023/10/27 07:19:35;;;;;;;0.25;0.25;;;;;;;8.25;100.00;97007.81;4973244;28;20652;-60
2023/10/27 07:22:03;;;;;;;0.30;0.30;;;;;;;8.25;100.00;97010.50;4981386;28;20042;-60
2023/10/27 07:24:32;;;;;;;0.30;0.30;;;;;;;8.27;100.00;97011.00;4976510;28;20086;-60
2023/10/27 07:26:59;;;;;;;0.30;0.30;;;;;;;8.36;100.00;97000.50;4972163;28;20041;-60
2023/10/27 07:29:26;;;;;;;0.32;0.32;;;;;;;8.47;100.00;97006.59;4985217;28;20098;-60
2023/10/27 07:31:54;;;;;;;0.20;0.20;;;;;;;8.58;100.00;97008.06;4978260;28;20671;-59
2023/10/27 07:34:21;;;;;;;0.30;0.30;;;;;;;8.69;100.00;97006.88;4984572;28;20137;-59
2023/10/27 07:36:48;;;;;;;0.30;0.30;;;;;;;8.72;100.00;97014.31;4980928;28;20485;-60
2023/10/27 07:39:15;;;;;;;0.28;0.28;;;;;;;8.76;100.00;97003.84;4981554;28;20042;-60
2023/10/27 07:41:44;;;;;;;0.30;0.30;;;;;;;8.82;100.00;97005.41;4974997;28;20051;-60
2023/10/27 07:44:10;;;;;;;0.30;0.30;;;;;;;8.87;100.00;97000.00;4982242;28;20157;-60
2023/10/27 07:46:37;;;;;;;0.30;0.30;;;;;;;8.90;100.00;97004.75;4978103;28;20405;-60
2023/10/27 07:49:04;;;;;;;0.28;0.28;;;;;;;8.93;100.00;97004.19;4976769;28;20065;-60
2023/10/27 07:51:32;;;;;;;0.28;0.28;;;;;;;9.04;100.00;97011.00;4981294;28;20054;-60
2023/10/27 07:53:59;;;;;;;0.30;0.30;;;;;;;9.01;100.00;97005.44;4978677;28;20544;-60
2023/10/27 07:56:29;;;;;;;0.20;0.20;;;;;;;9.00;100.00;97011.88;4984102;28;20046;-60
2023/10/27 07:58:57;;;;;;;0.20;0.20;;;;;;;9.00;100.00;97014.53;4981567;28;20050;-59
2023/10/27 08:01:24;;;;;;;0.30;0.30;;;;;;;9.01;100.00;97016.13;4982227;28;20039;-60
2023/10/27 08:03:51;;;;;;;0.30;0.30;;;;;;;9.06;100.00;97010.72;4984494;28;23307;-60
2023/10/27 08:06:21;;;;;;;0.20;0.20;;;;;;;9.01;100.00;97021.47;4985362;28;20539;-60
2023/10/27 08:08:48;;;;;;;0.30;0.30;;;;;;;9.14;100.00;97026.13;4973115;28;20137;-60
2023/10/27 08:11:15;;;;;;;0.30;0.30;;;;;;;9.17;100.00;97030.09;4982027;28;20056;-59
2023/10/27 08:13:42;;;;;;;0.20;0.20;;;;;;;9.06;100.00;97026.75;4978749;28;20525;-60
2023/10/27 08:16:12;;;;;;;0.30;0.30;;;;;;;9.19;100.00;97041.31;4978950;28;20046;-60
2023/10/27 08:18:39;;;;;;;0.30;0.30;;;;;;;9.16;100.00;97037.34;4997614;28;20034;-60
2023/10/27 08:21:06;;;;;;;0.20;0.20;;;;;;;9.18;100.00;97040.50;4982266;28;20103;-60
2023/10/27 08:23:33;;;;;;;0.30;0.30;;;;;;;9.13;100.00;97042.44;4982410;28;20153;-60
2023/10/27 08:26:00;;;;;;;0.20;0.20;;;;;;;9.24;100.00;97044.69;4977293;28;20046;-60
2023/10/27 08:28:28;;;;;;;0.20;0.20;;;;;;;9.27;100.00;97049.47;4982200;28;20596;-60
2023/10/27 08:30:56;;;;;;;0.20;0.20;;;;;;;9.24;100.00;97047.38;4971371;28;20042;-60
2023/10/27 08:33:25;;;;;;;0.20;0.20;;;;;;;9.27;100.00;97057.50;4972828;28;20512;-60
2023/10/27 08:35:52;;;;;;;0.22;0.22;;;;;;;9.25;100.00;97059.66;4979958;28;20085;-59
2023/10/27 08:38:19;;;;;;;0.20;0.20;;;;;;;9.33;100.00;97055.53;4974116;28;20088;-60
2023/10/27 08:40:46;;;;;;;0.20;0.20;;;;;;;9.26;100.00;97055.91;4974084;28;20053;-59
2023/10/27 08:43:13;;;;;;;0.20;0.20;;;;;;;9.36;100.00;97054.16;4980218;28;20523;-59
2023/10/27 08:45:40;;;;;;;0.22;0.22;;;;;;;9.38;100.00;97062.69;4975012;28;20066;-59
2023/10/27 08:48:07;;;;;;;0.20;0.20;;;;;;;9.37;100.00;97064.59;4986509;28;20043;-59
2023/10/27 08:50:35;;;;;;;0.20;0.20;;;;;;;9.41;100.00;97062.94;4974938;28;20134;-60
2023/10/27 08:53:03;;;;;;;0.20;0.20;;;;;;;9.44;100.00;97064.25;4978329;28;20044;-59
2023/10/27 08:55:30;;;;;;;0.20;0.20;;;;;;;9.44;100.00;97064.25;4974900;28;20047;-59
2023/10/27 08:57:59;;;;;;;0.20;0.20;;;;;;;9.64;100.00;97074.66;4980020;28;20532;-59
2023/10/27 09:00:26;;;;;;;0.20;0.20;;;;;;;9.53;100.00;97081.22;4974425;28;20341;-59
2023/10/27 09:02:53;;;;;;;0.20;0.20;;;;;;;9.56;100.00;97075.31;4976712;28;20042;-59
2023/10/27 09:05:21;;;;;;;0.20;0.20;;;;;;;9.71;100.00;97077.00;4983403;28;20134;-60
2023/10/27 09:07:50;;;;;;;0.20;0.20;;;;;;;9.83;100.00;97074.66;4975370;28;20057;-60
2023/10/27 09:10:18;;;;;;;0.25;0.25;;;;;;;9.84;100.00;97081.59;4978089;28;20077;-59
2023/10/27 09:12:47;;;;;;;0.28;0.28;;;;;;;10.03;100.00;97078.91;4976517;28;20047;-59
2023/10/27 09:15:14;;;;;;;0.20;0.20;;;;;;;10.08;100.00;97078.84;4977709;28;20125;-59
2023/10/27 09:17:51;;;;;;;0.20;0.20;;;;;;;10.60;100.00;97070.00;4983651;28;20066;-61
2023/10/27 09:20:18;;;;;;;0.20;0.20;;;;;;;10.83;100.00;97081.63;4978510;28;20050;-59
2023/10/27 09:22:58;;;;;;;0.20;0.20;;;;;;;11.17;100.00;97094.66;4979358;28;20404;-59
2023/10/27 09:25:28;;;;;;;0.25;0.25;;;;;;;11.74;100.00;97080.91;4976467;28;20456;-59
2023/10/27 09:27:55;;;;;;;0.20;0.20;;;;;;;11.91;100.00;97081.06;4984401;28;20405;-59
2023/10/27 09:30:26;;;;;;;0.22;0.22;;;;;;;12.17;100.00;97088.53;4984226;28;20049;-59
2023/10/27 09:32:53;;;;;;;0.17;0.17;;;;;;;12.09;100.00;97093.53;4979031;28;20145;-58
2023/10/27 09:35:22;;;;;;;0.20;0.20;;;;;;;12.30;100.00;97099.22;4976305;28;20416;-59
2023/10/27 09:37:50;;;;;;;0.20;0.20;;;;;;;12.07;100.00;97100.31;4975193;28;20117;-60
2023/10/27 09:40:18;;;;;;;0.20;0.20;;;;;;;12.08;100.00;97096.50;4982053;28;20042;-60
2023/10/27 09:42:45;;;;;;;0.20;0.20;;;;;;;12.02;100.00;97106.56;4981952;28;20060;-60
2023/10/27 09:45:13;;;;;;;0.17;0.17;;;;;;;12.78;100.00;97102.34;4984184;28;20393;-60
2023/10/27 09:47:46;;;;;;;0.20;0.20;;;;;;;12.58;100.00;97103.66;4973318;28;20104;-60
2023/10/27 09:50:14;;;;;;;0.20;0.20;;;;;;;13.63;100.00;97108.41;4971033;28;20055;-60
2023/10/27 09:52:42;;;;;;;0.28;0.28;;;;;;;14.50;100.00;97107.63;4974383;28;20039;-60
2023/10/27 09:55:10;;;;;;;0.15;0.15;;;;;;;13.57;100.00;97115.81;4978273;28;20061;-60
2023/10/27 09:57:38;;;;;;;0.10;0.10;;;;;;;12.76;100.00;97116.13;4971571;28;20038;-60
2023/10/27 10:00:08;;;;;;;0.08;0.08;;;;;;;12.50;100.00;97114.06;4975516;28;20188;-60
2023/10/27 10:02:38;;;;;;;0.10;0.10;;;;;;;12.29;100.00;97119.13;4982736;28;20042;-60
2023/10/27 10:05:08;;;;;;;0.13;0.13;;;;;;;12.10;100.00;97121.16;4977318;28;20152;-60
2023/10/27 10:07:37;;;;;;;0.20;0.20;;;;;;;12.11;100.00;97130.84;4982832;28;20046;-60
2023/10/27 10:10:29;;;;;;;0.20;0.20;;;;;;;12.28;100.00;97124.78;4982332;28;20133;-60
2023/10/27 10:13:19;;;;;;;0.17;0.17;;;;;;;12.65;100.00;97131.69;4974548;28;20513;-60
2023/10/27 10:15:47;;;;;;;0.20;0.20;;;;;;;12.62;100.00;97121.56;4982386;28;20098;-60
2023/10/27 10:18:47;;;;;;;0.20;0.20;;;;;;;12.76;100.00;97123.38;4979862;28;20049;-59
2023/10/27 10:21:33;;;;;;;0.10;0.10;;;;;;;13.19;100.00;97133.56;4975852;28;20049;-59
2023/10/27 10:24:09;;;;;;;0.10;0.10;;;;;;;12.80;100.00;97127.03;4984482;28;20501;-60
2023/10/27 10:27:05;;;;;;;0.10;0.10;;;;;;;12.79;100.00;97128.13;4977895;28;20043;-59
2023/10/27 10:29:34;;;;;;;0.10;0.10;;;;;;;12.54;100.00;97124.19;4994670;28;20035;-60
2023/10/27 10:32:31;;;;;;;0.20;0.20;;;;;;;13.05;100.00;97129.06;4979119;28;20488;-60
2023/10/27 10:35:21;;;;;;;0.20;0.20;;;;;;;12.86;100.00;97131.97;4981081;28;20049;-59
2023/10/27 10:37:49;;;;;;;0.20;0.20;;;;;;;12.77;100.00;97133.81;4980790;28;20134;-59
2023/10/27 10:40:27;;;;;;;0.20;0.20;;;;;;;12.92;100.00;97130.72;4983316;28;20152;-59
2023/10/27 10:43:17;;;;;;;0.20;0.20;;;;;;;12.67;100.00;97134.84;4982328;28;20406;-59
2023/10/27 10:45:48;;;;;;;0.20;0.20;;;;;;;12.96;100.00;97136.31;4979230;28;20652;-59
2023/10/27 10:48:18;;;;;;;0.10;0.10;;;;;;;12.80;100.00;97127.81;4983777;28;20057;-59
2023/10/27 10:50:46;;;;;;;;;;;;;;;12.88;100.00;97134.34;4983402;28;20046;-59
2023/10/27 10:53:15;;;;;;;0.20;0.20;;;;;;;13.31;100.00;97137.28;4986069;28;19957;-59
2023/10/27 10:55:46;;;;;;;0.20;0.20;;;;;;;13.40;100.00;97133.81;4975895;28;20055;-59
2023/10/27 10:58:21;;;;;;;0.20;0.20;;;;;;;13.83;100.00;97131.25;4984076;28;20098;-60
2023/10/27 11:00:49;;;;;;;0.20;0.20;;;;;;;13.99;100.00;97134.25;4975260;28;20056;-60
2023/10/27 11:03:16;;;;;;;0.17;0.17;;;;;;;14.53;100.00;97131.25;4980843;28;20109;-59
2023/10/27 11:05:43;;;;;;;0.10;0.10;;;;;;;14.52;97.55;97138.53;4982538;28;20540;-59
2023/10/27 11:08:10;;;;;;;0.10;0.10;;;;;;;14.00;95.83;97133.97;4973559;28;20129;-59
2023/10/27 11:10:37;;;;;;;0.10;0.10;;;;;;;14.09;98.68;97133.16;4976378;28;20097;-59
2023/10/27 11:13:05;;;;;;;0.10;0.10;;;;;;;13.83;98.65;97131.25;4980136;28;20069;-60
2023/10/27 11:15:42;;;;;;;0.10;0.10;;;;;;;13.59;99.60;97121.69;4976124;28;20059;-60
2023/10/27 11:18:14;;;;;;;0.10;0.10;;;;;;;13.61;100.00;97124.06;4978045;28;20547;-59
2023/10/27 11:20:41;;;;;;;0.10;0.10;;;;;;;13.92;96.57;97112.41;4974509;28;20105;-59
2023/10/27 11:23:09;;;;;;;0.17;0.17;;;;;;;14.02;97.39;97110.16;5011982;28;20335;-59
2023/10/27 11:25:36;;;;;;;0.20;0.20;;;;;;;14.40;96.64;97117.63;4980633;28;20045;-59
2023/10/27 11:28:21;;;;;;;0.20;0.20;;;;;;;14.73;95.65;97114.44;4983384;28;20053;-60
2023/10/27 11:31:06;;;;;;;0.10;0.10;;;;;;;15.00;93.33;97112.44;4980575;28;20438;-60
2023/10/27 11:33:35;;;;;;;0.10;0.10;;;;;;;14.96;90.64;97106.13;4983793;28;20043;-60
2023/10/27 11:36:02;;;;;;;0.08;0.08;;;;;;;14.77;92.70;97122.66;4972163;28;20779;-59
2023/10/27 11:38:32;;;;;;;0.10;0.10;;;;;;;15.29;91.18;97122.50;4969969;28;20814;-59